sensor_id;sensor_type;location;lat;lon;timestamp;pressure;altitude;pressure_sealevel;temperature
15144;BMP180;7672;50.834;6.286;2022-10-16T00:01:36;99278.03;;;17.46
15144;BMP180;7672;50.834;6.286;2022-10-16T00:04:04;99285.69;;;17.46
15144;BMP180;7672;50.834;6.286;2022-10-16T00:06:31;99286.56;;;17.46
15144;BMP180;7672;50.834;6.286;2022-10-16T00:08:59;99274.66;;;17.45
15144;BMP180;7672;50.834;6.286;2022-10-16T00:11:32;99277.22;;;17.45
15144;BMP180;7672;50.834;6.286;2022-10-16T00:14:10;99262.75;;;17.44
15144;BMP180;7672;50.834;6.286;2022-10-16T00:16:38;99256.88;;;17.42
15144;BMP180;7672;50.834;6.286;2022-10-16T00:19:05;99256.03;;;17.42
15144;BMP180;7672;50.834;6.286;2022-10-16T00:21:32;99260.38;;;17.38
15144;BMP180;7672;50.834;6.286;2022-10-16T00:24:05;99257.81;;;17.38
15144;BMP180;7672;50.834;6.286;2022-10-16T00:26:34;99247.66;;;17.37
15144;BMP180;7672;50.834;6.286;2022-10-16T00:29:03;99263.09;;;17.34
15144;BMP180;7672;50.834;6.286;2022-10-16T00:31:31;99266.56;;;17.32
15144;BMP180;7672;50.834;6.286;2022-10-16T00:33:58;99253.00;;;17.30
15144;BMP180;7672;50.834;6.286;2022-10-16T00:36:26;99247.06;;;17.29
15144;BMP180;7672;50.834;6.286;2022-10-16T00:38:56;99254.81;;;17.26
15144;BMP180;7672;50.834;6.286;2022-10-16T00:41:25;99244.66;;;17.23
15144;BMP180;7672;50.834;6.286;2022-10-16T00:43:58;99250.72;;;17.19
15144;BMP180;7672;50.834;6.286;2022-10-16T00:46:45;99246.59;;;17.15
15144;BMP180;7672;50.834;6.286;2022-10-16T00:49:17;99254.41;;;17.09
15144;BMP180;7672;50.834;6.286;2022-10-16T00:51:50;99251.16;;;17.06
15144;BMP180;7672;50.834;6.286;2022-10-16T00:54:24;99249.53;;;17.02
15144;BMP180;7672;50.834;6.286;2022-10-16T00:56:53;99259.78;;;17.00
15144;BMP180;7672;50.834;6.286;2022-10-16T00:59:25;99266.69;;;16.98
15144;BMP180;7672;50.834;6.286;2022-10-16T01:01:54;99263.31;;;16.96
15144;BMP180;7672;50.834;6.286;2022-10-16T01:04:23;99258.31;;;16.93
15144;BMP180;7672;50.834;6.286;2022-10-16T01:07:14;99275.38;;;16.91
15144;BMP180;7672;50.834;6.286;2022-10-16T01:10:06;99281.44;;;16.87
15144;BMP180;7672;50.834;6.286;2022-10-16T01:12:58;99267.09;;;16.83
15144;BMP180;7672;50.834;6.286;2022-10-16T01:16:01;99270.63;;;16.79
15144;BMP180;7672;50.834;6.286;2022-10-16T01:18:37;99260.53;;;16.75
15144;BMP180;7672;50.834;6.286;2022-10-16T01:21:13;99260.56;;;16.73
15144;BMP180;7672;50.834;6.286;2022-10-16T01:24:12;99266.53;;;16.72
15144;BMP180;7672;50.834;6.286;2022-10-16T01:27:12;99271.75;;;16.70
15144;BMP180;7672;50.834;6.286;2022-10-16T01:30:02;99275.25;;;16.66
15144;BMP180;7672;50.834;6.286;2022-10-16T01:32:41;99275.38;;;16.61
15144;BMP180;7672;50.834;6.286;2022-10-16T01:35:11;99269.44;;;16.61
15144;BMP180;7672;50.834;6.286;2022-10-16T01:38:00;99275.41;;;16.60
15144;BMP180;7672;50.834;6.286;2022-10-16T01:40:32;99281.38;;;16.59
15144;BMP180;7672;50.834;6.286;2022-10-16T01:43:08;99283.88;;;16.60
15144;BMP180;7672;50.834;6.286;2022-10-16T01:45:36;99277.03;;;16.62
15144;BMP180;7672;50.834;6.286;2022-10-16T01:48:05;99280.41;;;16.63
15144;BMP180;7672;50.834;6.286;2022-10-16T01:50:39;99289.72;;;16.65
15144;BMP180;7672;50.834;6.286;2022-10-16T01:53:12;99293.91;;;16.68
15144;BMP180;7672;50.834;6.286;2022-10-16T01:55:46;99291.28;;;16.71
15144;BMP180;7672;50.834;6.286;2022-10-16T01:58:15;99296.38;;;16.71
15144;BMP180;7672;50.834;6.286;2022-10-16T02:00:46;99295.47;;;16.71
15144;BMP180;7672;50.834;6.286;2022-10-16T02:03:18;99296.28;;;16.73
15144;BMP180;7672;50.834;6.286;2022-10-16T02:05:50;99292.00;;;16.74
15144;BMP180;7672;50.834;6.286;2022-10-16T02:08:19;99289.47;;;16.74
15144;BMP180;7672;50.834;6.286;2022-10-16T02:10:47;99285.16;;;16.76
15144;BMP180;7672;50.834;6.286;2022-10-16T02:13:21;99302.13;;;16.78
15144;BMP180;7672;50.834;6.286;2022-10-16T02:15:50;99302.94;;;16.79
15144;BMP180;7672;50.834;6.286;2022-10-16T02:18:17;99307.94;;;16.83
15144;BMP180;7672;50.834;6.286;2022-10-16T02:20:53;99293.41;;;16.85
15144;BMP180;7672;50.834;6.286;2022-10-16T02:23:57;99299.31;;;16.87
15144;BMP180;7672;50.834;6.286;2022-10-16T02:29:23;99290.72;;;16.90
15144;BMP180;7672;50.834;6.286;2022-10-16T02:31:57;99291.56;;;16.90
15144;BMP180;7672;50.834;6.286;2022-10-16T02:34:27;99298.34;;;16.91
15144;BMP180;7672;50.834;6.286;2022-10-16T02:36:57;99300.03;;;16.92
15144;BMP180;7672;50.834;6.286;2022-10-16T02:39:26;99304.31;;;16.92
15144;BMP180;7672;50.834;6.286;2022-10-16T02:41:54;99293.25;;;16.91
15144;BMP180;7672;50.834;6.286;2022-10-16T02:44:21;99301.75;;;16.92
15144;BMP180;7672;50.834;6.286;2022-10-16T02:46:47;99299.19;;;16.92
15144;BMP180;7672;50.834;6.286;2022-10-16T02:49:14;99299.19;;;16.92
15144;BMP180;7672;50.834;6.286;2022-10-16T02:51:41;99303.44;;;16.91
15144;BMP180;7672;50.834;6.286;2022-10-16T02:54:08;99298.34;;;16.91
15144;BMP180;7672;50.834;6.286;2022-10-16T02:56:35;99293.19;;;16.93
15144;BMP180;7672;50.834;6.286;2022-10-16T02:59:02;99287.31;;;16.91
15144;BMP180;7672;50.834;6.286;2022-10-16T03:01:29;99285.59;;;16.91
15144;BMP180;7672;50.834;6.286;2022-10-16T03:03:55;99287.25;;;16.92
15144;BMP180;7672;50.834;6.286;2022-10-16T03:06:22;99282.16;;;16.92
15144;BMP180;7672;50.834;6.286;2022-10-16T03:08:50;99286.38;;;16.93
15144;BMP180;7672;50.834;6.286;2022-10-16T03:11:16;99283.84;;;16.93
15144;BMP180;7672;50.834;6.286;2022-10-16T03:13:43;99292.28;;;16.95
15144;BMP180;7672;50.834;6.286;2022-10-16T03:16:10;99291.41;;;16.96
15144;BMP180;7672;50.834;6.286;2022-10-16T03:18:37;99276.94;;;16.97
15144;BMP180;7672;50.834;6.286;2022-10-16T03:21:04;99288.78;;;16.98
15144;BMP180;7672;50.834;6.286;2022-10-16T03:23:30;99291.31;;;16.99
15144;BMP180;7672;50.834;6.286;2022-10-16T03:25:57;99295.50;;;17.02
15144;BMP180;7672;50.834;6.286;2022-10-16T03:28:24;99285.25;;;17.03
15144;BMP180;7672;50.834;6.286;2022-10-16T03:30:51;99287.72;;;17.06
15144;BMP180;7672;50.834;6.286;2022-10-16T03:33:18;99291.91;;;17.09
15144;BMP180;7672;50.834;6.286;2022-10-16T03:35:54;99304.56;;;17.12
15144;BMP180;7672;50.834;6.286;2022-10-16T03:38:21;99312.22;;;17.12
15144;BMP180;7672;50.834;6.286;2022-10-16T03:40:48;99321.47;;;17.16
15144;BMP180;7672;50.834;6.286;2022-10-16T03:43:15;99335.00;;;17.19
15144;BMP180;7672;50.834;6.286;2022-10-16T03:45:42;99325.59;;;17.21
15144;BMP180;7672;50.834;6.286;2022-10-16T03:48:09;99315.31;;;17.23
15144;BMP180;7672;50.834;6.286;2022-10-16T03:50:37;99311.88;;;17.25
15144;BMP180;7672;50.834;6.286;2022-10-16T03:53:04;99314.44;;;17.25
15144;BMP180;7672;50.834;6.286;2022-10-16T03:55:30;99317.84;;;17.24
15144;BMP180;7672;50.834;6.286;2022-10-16T03:57:57;99317.84;;;17.24
15144;BMP180;7672;50.834;6.286;2022-10-16T04:00:24;99317.88;;;17.23
15144;BMP180;7672;50.834;6.286;2022-10-16T04:02:51;99325.59;;;17.21
15144;BMP180;7672;50.834;6.286;2022-10-16T04:05:17;99331.56;;;17.20
15144;BMP180;7672;50.834;6.286;2022-10-16T04:07:44;99329.06;;;17.19
15144;BMP180;7672;50.834;6.286;2022-10-16T04:10:11;99324.03;;;17.16
15144;BMP180;7672;50.834;6.286;2022-10-16T04:12:38;99324.16;;;17.11
15144;BMP180;7672;50.834;6.286;2022-10-16T04:15:05;99322.59;;;17.07
15144;BMP180;7672;50.834;6.286;2022-10-16T04:17:32;99319.28;;;17.04
15144;BMP180;7672;50.834;6.286;2022-10-16T04:19:58;99319.38;;;16.99
15144;BMP180;7672;50.834;6.286;2022-10-16T04:22:25;99317.78;;;16.97
15144;BMP180;7672;50.834;6.286;2022-10-16T04:24:53;99321.31;;;16.91
15144;BMP180;7672;50.834;6.286;2022-10-16T04:27:19;99325.66;;;16.88
15144;BMP180;7672;50.834;6.286;2022-10-16T04:29:46;99324.03;;;16.85
15144;BMP180;7672;50.834;6.286;2022-10-16T04:32:13;99322.44;;;16.81
15144;BMP180;7672;50.834;6.286;2022-10-16T04:34:40;99336.16;;;16.77
15144;BMP180;7672;50.834;6.286;2022-10-16T04:37:06;99360.09;;;16.73
15144;BMP180;7672;50.834;6.286;2022-10-16T04:39:33;99361.88;;;16.70
15144;BMP180;7672;50.834;6.286;2022-10-16T04:42:00;99366.25;;;16.65
15144;BMP180;7672;50.834;6.286;2022-10-16T04:44:27;99362.06;;;16.63
15144;BMP180;7672;50.834;6.286;2022-10-16T04:46:54;99348.56;;;16.59
15144;BMP180;7672;50.834;6.286;2022-10-16T04:49:21;99367.34;;;16.57
15144;BMP180;7672;50.834;6.286;2022-10-16T04:51:47;99378.50;;;16.53
15144;BMP180;7672;50.834;6.286;2022-10-16T04:54:14;99382.78;;;16.51
15144;BMP180;7672;50.834;6.286;2022-10-16T04:56:41;99375.22;;;16.46
15144;BMP180;7672;50.834;6.286;2022-10-16T04:59:14;99385.53;;;16.43
15144;BMP180;7672;50.834;6.286;2022-10-16T05:01:41;99390.75;;;16.39
15144;BMP180;7672;50.834;6.286;2022-10-16T05:04:09;99389.94;;;16.37
15144;BMP180;7672;50.834;6.286;2022-10-16T05:06:37;99393.44;;;16.33
15144;BMP180;7672;50.834;6.286;2022-10-16T05:09:05;99390.16;;;16.28
15144;BMP180;7672;50.834;6.286;2022-10-16T05:11:32;99399.56;;;16.24
15144;BMP180;7672;50.834;6.286;2022-10-16T05:14:00;99399.66;;;16.20
15144;BMP180;7672;50.834;6.286;2022-10-16T05:16:27;99400.59;;;16.17
15144;BMP180;7672;50.834;6.286;2022-10-16T05:18:54;99404.06;;;16.13
15144;BMP180;7672;50.834;6.286;2022-10-16T05:21:29;99404.13;;;16.10
15144;BMP180;7672;50.834;6.286;2022-10-16T05:23:56;99416.09;;;16.08
15144;BMP180;7672;50.834;6.286;2022-10-16T05:26:23;99404.25;;;16.06
15144;BMP180;7672;50.834;6.286;2022-10-16T05:28:50;99404.28;;;16.03
15144;BMP180;7672;50.834;6.286;2022-10-16T05:31:17;99406.88;;;16.02
15144;BMP180;7672;50.834;6.286;2022-10-16T05:33:44;99405.19;;;16.01
15144;BMP180;7672;50.834;6.286;2022-10-16T05:36:11;99408.66;;;15.98
15144;BMP180;7672;50.834;6.286;2022-10-16T05:38:38;99423.13;;;15.98
15144;BMP180;7672;50.834;6.286;2022-10-16T05:41:06;99429.94;;;15.97
15144;BMP180;7672;50.834;6.286;2022-10-16T05:43:33;99426.56;;;15.95
15144;BMP180;7672;50.834;6.286;2022-10-16T05:46:05;99432.50;;;15.97
15144;BMP180;7672;50.834;6.286;2022-10-16T05:48:33;99428.25;;;15.96
15144;BMP180;7672;50.834;6.286;2022-10-16T05:51:13;99443.56;;;15.96
15144;BMP180;7672;50.834;6.286;2022-10-16T05:53:40;99457.19;;;15.94
15144;BMP180;7672;50.834;6.286;2022-10-16T05:56:10;99462.28;;;15.94
15144;BMP180;7672;50.834;6.286;2022-10-16T05:58:38;99467.44;;;15.92
15144;BMP180;7672;50.834;6.286;2022-10-16T06:01:13;99467.44;;;15.92
15144;BMP180;7672;50.834;6.286;2022-10-16T06:03:41;99459.78;;;15.91
15144;BMP180;7672;50.834;6.286;2022-10-16T06:06:17;99460.69;;;15.90
15144;BMP180;7672;50.834;6.286;2022-10-16T06:08:46;99464.06;;;15.90
15144;BMP180;7672;50.834;6.286;2022-10-16T06:11:17;99475.06;;;15.92
15144;BMP180;7672;50.834;6.286;2022-10-16T06:13:44;99480.97;;;15.94
15144;BMP180;7672;50.834;6.286;2022-10-16T06:16:12;99474.97;;;15.97
15144;BMP180;7672;50.834;6.286;2022-10-16T06:18:39;99480.03;;;16.00
15144;BMP180;7672;50.834;6.286;2022-10-16T06:21:16;99485.88;;;16.03
15144;BMP180;7672;50.834;6.286;2022-10-16T06:23:44;99497.72;;;16.06
15144;BMP180;7672;50.834;6.286;2022-10-16T06:26:20;99507.88;;;16.08
15144;BMP180;7672;50.834;6.286;2022-10-16T06:28:47;99493.34;;;16.10
15144;BMP180;7672;50.834;6.286;2022-10-16T06:31:15;99494.97;;;16.14
15144;BMP180;7672;50.834;6.286;2022-10-16T06:33:43;99500.84;;;16.18
15144;BMP180;7672;50.834;6.286;2022-10-16T06:36:14;99500.78;;;16.21
15144;BMP180;7672;50.834;6.286;2022-10-16T06:38:42;99503.22;;;16.25
15144;BMP180;7672;50.834;6.286;2022-10-16T06:41:15;99494.69;;;16.29
15144;BMP180;7672;50.834;6.286;2022-10-16T06:43:42;99509.00;;;16.36
15144;BMP180;7672;50.834;6.286;2022-10-16T06:46:11;99507.78;;;16.51
15144;BMP180;7672;50.834;6.286;2022-10-16T06:48:38;99520.03;;;16.71
15144;BMP180;7672;50.834;6.286;2022-10-16T06:51:20;99519.47;;;16.95
15144;BMP180;7672;50.834;6.286;2022-10-16T06:53:50;99511.34;;;17.15
15144;BMP180;7672;50.834;6.286;2022-10-16T06:56:33;99518.63;;;17.30
15144;BMP180;7672;50.834;6.286;2022-10-16T06:59:00;99525.13;;;17.42
15144;BMP180;7672;50.834;6.286;2022-10-16T07:01:28;99534.97;;;17.56
15144;BMP180;7672;50.834;6.286;2022-10-16T07:03:55;99530.22;;;17.74
15144;BMP180;7672;50.834;6.286;2022-10-16T07:06:25;99543.09;;;18.00
15144;BMP180;7672;50.834;6.286;2022-10-16T07:08:52;99551.00;;;18.23
15144;BMP180;7672;50.834;6.286;2022-10-16T07:11:22;99561.56;;;18.41
15144;BMP180;7672;50.834;6.286;2022-10-16T07:13:50;99561.09;;;18.56
15144;BMP180;7672;50.834;6.286;2022-10-16T07:16:27;99557.34;;;18.66
15144;BMP180;7672;50.834;6.286;2022-10-16T07:18:57;99564.75;;;18.75
15144;BMP180;7672;50.834;6.286;2022-10-16T07:21:30;99558.41;;;18.88
15144;BMP180;7672;50.834;6.286;2022-10-16T07:24:02;99567.94;;;19.10
15144;BMP180;7672;50.834;6.286;2022-10-16T07:26:33;99563.94;;;19.27
15144;BMP180;7672;50.834;6.286;2022-10-16T07:29:00;99573.69;;;19.42
15144;BMP180;7672;50.834;6.286;2022-10-16T07:31:28;99581.00;;;19.53
15144;BMP180;7672;50.834;6.286;2022-10-16T07:33:55;99584.25;;;19.58
15144;BMP180;7672;50.834;6.286;2022-10-16T07:36:22;99587.50;;;19.63
15144;BMP180;7672;50.834;6.286;2022-10-16T07:38:48;99589.13;;;19.65
15144;BMP180;7672;50.834;6.286;2022-10-16T07:41:20;99599.13;;;19.73
15144;BMP180;7672;50.834;6.286;2022-10-16T07:43:52;99589.72;;;19.97
15144;BMP180;7672;50.834;6.286;2022-10-16T07:46:21;99592.75;;;20.54
15144;BMP180;7672;50.834;6.286;2022-10-16T07:48:48;99598.16;;;21.33
15144;BMP180;7672;50.834;6.286;2022-10-16T07:51:18;99595.56;;;22.33
15144;BMP180;7672;50.834;6.286;2022-10-16T07:53:46;99594.16;;;23.34
15144;BMP180;7672;50.834;6.286;2022-10-16T07:56:15;99595.72;;;24.36
15144;BMP180;7672;50.834;6.286;2022-10-16T07:58:42;99597.06;;;25.36
15144;BMP180;7672;50.834;6.286;2022-10-16T08:01:13;99599.09;;;26.31
15144;BMP180;7672;50.834;6.286;2022-10-16T08:03:46;99606.97;;;27.24
15144;BMP180;7672;50.834;6.286;2022-10-16T08:06:13;99609.94;;;28.08
15144;BMP180;7672;50.834;6.286;2022-10-16T08:08:40;99606.34;;;28.83
15144;BMP180;7672;50.834;6.286;2022-10-16T08:11:08;99614.88;;;29.55
15144;BMP180;7672;50.834;6.286;2022-10-16T08:13:35;99611.34;;;30.23
15144;BMP180;7672;50.834;6.286;2022-10-16T08:16:03;99607.41;;;30.83
15144;BMP180;7672;50.834;6.286;2022-10-16T08:18:35;99624.72;;;31.37
15144;BMP180;7672;50.834;6.286;2022-10-16T08:21:04;99621.28;;;31.88
15144;BMP180;7672;50.834;6.286;2022-10-16T08:23:32;99628.25;;;32.28
15144;BMP180;7672;50.834;6.286;2022-10-16T08:26:05;99625.69;;;32.67
15144;BMP180;7672;50.834;6.286;2022-10-16T08:28:33;99634.22;;;33.09
15144;BMP180;7672;50.834;6.286;2022-10-16T08:31:26;99643.78;;;33.47
15144;BMP180;7672;50.834;6.286;2022-10-16T08:33:53;99637.00;;;33.83
15144;BMP180;7672;50.834;6.286;2022-10-16T08:36:20;99633.91;;;34.15
15144;BMP180;7672;50.834;6.286;2022-10-16T08:38:49;99634.38;;;34.47
15144;BMP180;7672;50.834;6.286;2022-10-16T08:42:01;99643.72;;;34.86
15144;BMP180;7672;50.834;6.286;2022-10-16T08:45:06;99643.88;;;35.28
15144;BMP180;7672;50.834;6.286;2022-10-16T08:50:28;99658.88;;;36.05
15144;BMP180;7672;50.834;6.286;2022-10-16T08:52:57;99656.53;;;36.28
15144;BMP180;7672;50.834;6.286;2022-10-16T08:55:38;99661.41;;;36.40
15144;BMP180;7672;50.834;6.286;2022-10-16T08:58:18;99658.03;;;36.55
15144;BMP180;7672;50.834;6.286;2022-10-16T09:00:55;99657.94;;;36.73
15144;BMP180;7672;50.834;6.286;2022-10-16T09:14:45;99658.84;;;37.78
15144;BMP180;7672;50.834;6.286;2022-10-16T09:17:25;99670.41;;;37.93
15144;BMP180;7672;50.834;6.286;2022-10-16T09:20:35;99670.09;;;37.96
15144;BMP180;7672;50.834;6.286;2022-10-16T09:25:33;99676.16;;;38.12
15144;BMP180;7672;50.834;6.286;2022-10-16T09:28:01;99677.44;;;38.32
15144;BMP180;7672;50.834;6.286;2022-10-16T09:30:29;99671.78;;;38.51
15144;BMP180;7672;50.834;6.286;2022-10-16T09:32:58;99678.84;;;38.74
15144;BMP180;7672;50.834;6.286;2022-10-16T09:35:38;99673.59;;;38.97
15144;BMP180;7672;50.834;6.286;2022-10-16T09:38:07;99682.22;;;38.99
15144;BMP180;7672;50.834;6.286;2022-10-16T09:40:38;99678.88;;;39.04
15144;BMP180;7672;50.834;6.286;2022-10-16T09:43:26;99666.09;;;39.16
15144;BMP180;7672;50.834;6.286;2022-10-16T09:46:04;99679.19;;;39.32
15144;BMP180;7672;50.834;6.286;2022-10-16T09:48:38;99681.59;;;39.49
15144;BMP180;7672;50.834;6.286;2022-10-16T09:51:18;99677.63;;;39.67
15144;BMP180;7672;50.834;6.286;2022-10-16T09:53:46;99676.84;;;39.89
15144;BMP180;7672;50.834;6.286;2022-10-16T09:56:34;99682.72;;;40.14
15144;BMP180;7672;50.834;6.286;2022-10-16T09:59:17;99680.13;;;40.42
15144;BMP180;7672;50.834;6.286;2022-10-16T10:01:51;99687.91;;;40.73
15144;BMP180;7672;50.834;6.286;2022-10-16T10:04:21;99674.16;;;40.84
15144;BMP180;7672;50.834;6.286;2022-10-16T10:06:52;99672.63;;;40.75
15144;BMP180;7672;50.834;6.286;2022-10-16T10:09:37;99683.75;;;40.27
15144;BMP180;7672;50.834;6.286;2022-10-16T10:12:19;99674.22;;;39.81
15144;BMP180;7672;50.834;6.286;2022-10-16T10:14:58;99682.00;;;39.61
15144;BMP180;7672;50.834;6.286;2022-10-16T10:17:28;99684.56;;;39.46
15144;BMP180;7672;50.834;6.286;2022-10-16T10:20:34;99690.88;;;39.15
15144;BMP180;7672;50.834;6.286;2022-10-16T10:23:21;99691.03;;;38.83
15144;BMP180;7672;50.834;6.286;2022-10-16T10:26:09;99694.56;;;38.52
15144;BMP180;7672;50.834;6.286;2022-10-16T10:36:41;99688.91;;;36.71
15144;BMP180;7672;50.834;6.286;2022-10-16T10:45:17;99696.13;;;35.14
15144;BMP180;7672;50.834;6.286;2022-10-16T10:48:16;99692.69;;;34.77
15144;BMP180;7672;50.834;6.286;2022-10-16T10:51:01;99695.44;;;34.49
15144;BMP180;7672;50.834;6.286;2022-10-16T10:54:03;99704.47;;;34.18
15144;BMP180;7672;50.834;6.286;2022-10-16T10:56:57;99712.75;;;33.76
15144;BMP180;7672;50.834;6.286;2022-10-16T10:59:48;99715.63;;;33.45
15144;BMP180;7672;50.834;6.286;2022-10-16T11:02:42;99707.31;;;33.21
15144;BMP180;7672;50.834;6.286;2022-10-16T11:08:35;99702.22;;;32.90
15144;BMP180;7672;50.834;6.286;2022-10-16T11:11:11;99705.50;;;32.82
15144;BMP180;7672;50.834;6.286;2022-10-16T11:14:00;99701.91;;;32.74
15144;BMP180;7672;50.834;6.286;2022-10-16T11:16:51;99717.97;;;32.60
15144;BMP180;7672;50.834;6.286;2022-10-16T11:19:48;99718.97;;;32.48
15144;BMP180;7672;50.834;6.286;2022-10-16T11:22:37;99719.69;;;32.50
15144;BMP180;7672;50.834;6.286;2022-10-16T11:25:21;99727.47;;;32.61
15144;BMP180;7672;50.834;6.286;2022-10-16T11:33:35;99729.03;;;32.73
15144;BMP180;7672;50.834;6.286;2022-10-16T11:44:51;99724.09;;;32.29
15144;BMP180;7672;50.834;6.286;2022-10-16T11:50:45;99724.38;;;31.95
15144;BMP180;7672;50.834;6.286;2022-10-16T11:56:06;99716.09;;;31.59
15144;BMP180;7672;50.834;6.286;2022-10-16T11:59:16;99716.84;;;31.39
15144;BMP180;7672;50.834;6.286;2022-10-16T12:02:30;99714.50;;;31.25
15144;BMP180;7672;50.834;6.286;2022-10-16T12:05:18;99724.28;;;31.12
15144;BMP180;7672;50.834;6.286;2022-10-16T12:10:31;99713.81;;;30.90
15144;BMP180;7672;50.834;6.286;2022-10-16T12:13:32;99716.66;;;30.76
15144;BMP180;7672;50.834;6.286;2022-10-16T12:18:41;99708.38;;;30.61
15144;BMP180;7672;50.834;6.286;2022-10-16T12:21:10;99708.84;;;30.55
15144;BMP180;7672;50.834;6.286;2022-10-16T12:23:53;99707.88;;;30.45
15144;BMP180;7672;50.834;6.286;2022-10-16T12:26:37;99708.56;;;30.36
15144;BMP180;7672;50.834;6.286;2022-10-16T12:29:38;99713.03;;;30.23
15144;BMP180;7672;50.834;6.286;2022-10-16T12:32:29;99713.63;;;30.15
15144;BMP180;7672;50.834;6.286;2022-10-16T12:35:27;99709.22;;;30.05
15144;BMP180;7672;50.834;6.286;2022-10-16T12:38:14;99711.53;;;29.97
15144;BMP180;7672;50.834;6.286;2022-10-16T12:40:44;99722.31;;;29.93
15144;BMP180;7672;50.834;6.286;2022-10-16T12:43:40;99717.56;;;29.87
15144;BMP180;7672;50.834;6.286;2022-10-16T12:48:37;99705.66;;;29.83
15144;BMP180;7672;50.834;6.286;2022-10-16T12:54:18;99693.41;;;29.96
15144;BMP180;7672;50.834;6.286;2022-10-16T13:06:17;99714.41;;;29.12
15144;BMP180;7672;50.834;6.286;2022-10-16T13:12:02;99708.50;;;28.73
15144;BMP180;7672;50.834;6.286;2022-10-16T13:17:14;99712.94;;;28.08
15144;BMP180;7672;50.834;6.286;2022-10-16T13:23:04;99710.25;;;27.45
15144;BMP180;7672;50.834;6.286;2022-10-16T13:28:30;99706.84;;;26.90
15144;BMP180;7672;50.834;6.286;2022-10-16T13:31:00;99712.03;;;26.77
15144;BMP180;7672;50.834;6.286;2022-10-16T13:33:37;99708.44;;;26.65
15144;BMP180;7672;50.834;6.286;2022-10-16T13:36:06;99704.63;;;26.57
15144;BMP180;7672;50.834;6.286;2022-10-16T13:38:36;99710.28;;;26.49
15144;BMP180;7672;50.834;6.286;2022-10-16T13:41:11;99708.78;;;26.45
15144;BMP180;7672;50.834;6.286;2022-10-16T13:43:51;99708.22;;;26.40
15144;BMP180;7672;50.834;6.286;2022-10-16T13:46:25;99710.00;;;26.40
15144;BMP180;7672;50.834;6.286;2022-10-16T13:49:05;99715.09;;;26.41
15144;BMP180;7672;50.834;6.286;2022-10-16T13:51:33;99719.06;;;26.47
15144;BMP180;7672;50.834;6.286;2022-10-16T13:53:59;99718.03;;;26.49
15144;BMP180;7672;50.834;6.286;2022-10-16T13:56:30;99719.63;;;26.52
15144;BMP180;7672;50.834;6.286;2022-10-16T13:59:32;99714.25;;;26.41
15144;BMP180;7672;50.834;6.286;2022-10-16T14:02:08;99724.47;;;26.28
15144;BMP180;7672;50.834;6.286;2022-10-16T14:04:40;99715.69;;;26.17
15144;BMP180;7672;50.834;6.286;2022-10-16T14:07:33;99711.19;;;26.05
15144;BMP180;7672;50.834;6.286;2022-10-16T14:10:05;99712.13;;;26.04
15144;BMP180;7672;50.834;6.286;2022-10-16T14:12:34;99714.06;;;26.01
15144;BMP180;7672;50.834;6.286;2022-10-16T14:15:02;99704.72;;;25.98
15144;BMP180;7672;50.834;6.286;2022-10-16T14:17:33;99707.41;;;25.97
15144;BMP180;7672;50.834;6.286;2022-10-16T14:20:05;99711.09;;;25.93
15144;BMP180;7672;50.834;6.286;2022-10-16T14:22:40;99725.97;;;25.89
15144;BMP180;7672;50.834;6.286;2022-10-16T14:28:13;99733.50;;;25.78
15144;BMP180;7672;50.834;6.286;2022-10-16T14:30:59;99730.34;;;25.73
15144;BMP180;7672;50.834;6.286;2022-10-16T14:36:09;99726.22;;;25.69
15144;BMP180;7672;50.834;6.286;2022-10-16T14:38:43;99721.13;;;25.68
15144;BMP180;7672;50.834;6.286;2022-10-16T14:41:15;99728.03;;;25.67
15144;BMP180;7672;50.834;6.286;2022-10-16T14:43:43;99727.13;;;25.68
15144;BMP180;7672;50.834;6.286;2022-10-16T14:46:28;99735.81;;;25.67
15144;BMP180;7672;50.834;6.286;2022-10-16T14:49:18;99732.50;;;25.65
15144;BMP180;7672;50.834;6.286;2022-10-16T14:51:47;99721.22;;;25.66
15144;BMP180;7672;50.834;6.286;2022-10-16T14:54:17;99720.47;;;25.64
15144;BMP180;7672;50.834;6.286;2022-10-16T14:59:35;99737.28;;;25.57
15144;BMP180;7672;50.834;6.286;2022-10-16T15:02:45;99732.66;;;25.47
15144;BMP180;7672;50.834;6.286;2022-10-16T15:05:22;99729.50;;;25.42
15144;BMP180;7672;50.834;6.286;2022-10-16T15:07:51;99735.13;;;25.35
15144;BMP180;7672;50.834;6.286;2022-10-16T15:10:24;99729.44;;;25.28
15144;BMP180;7672;50.834;6.286;2022-10-16T15:12:51;99716.84;;;25.22
15144;BMP180;7672;50.834;6.286;2022-10-16T15:15:37;99719.09;;;25.13
15144;BMP180;7672;50.834;6.286;2022-10-16T15:18:04;99710.13;;;25.03
15144;BMP180;7672;50.834;6.286;2022-10-16T15:20:34;99712.19;;;24.96
15144;BMP180;7672;50.834;6.286;2022-10-16T15:23:09;99714.28;;;24.90
15144;BMP180;7672;50.834;6.286;2022-10-16T15:28:14;99711.59;;;24.76
15144;BMP180;7672;50.834;6.286;2022-10-16T15:30:42;99712.84;;;24.69
15144;BMP180;7672;50.834;6.286;2022-10-16T15:33:15;99712.06;;;24.67
15144;BMP180;7672;50.834;6.286;2022-10-16T15:35:46;99705.50;;;24.62
15144;BMP180;7672;50.834;6.286;2022-10-16T15:38:15;99703.91;;;24.59
15144;BMP180;7672;50.834;6.286;2022-10-16T15:40:43;99704.06;;;24.56
15144;BMP180;7672;50.834;6.286;2022-10-16T15:43:09;99710.28;;;24.52
15144;BMP180;7672;50.834;6.286;2022-10-16T15:45:37;99708.69;;;24.50
15144;BMP180;7672;50.834;6.286;2022-10-16T15:48:04;99703.88;;;24.44
15144;BMP180;7672;50.834;6.286;2022-10-16T15:50:33;99707.59;;;24.38
15144;BMP180;7672;50.834;6.286;2022-10-16T15:53:00;99700.22;;;24.31
15144;BMP180;7672;50.834;6.286;2022-10-16T15:55:27;99695.34;;;24.25
15144;BMP180;7672;50.834;6.286;2022-10-16T15:57:54;99696.44;;;24.21
15144;BMP180;7672;50.834;6.286;2022-10-16T16:00:21;99694.91;;;24.17
15144;BMP180;7672;50.834;6.286;2022-10-16T16:02:53;99700.31;;;24.13
15144;BMP180;7672;50.834;6.286;2022-10-16T16:05:21;99693.84;;;24.04
15144;BMP180;7672;50.834;6.286;2022-10-16T16:07:49;99701.91;;;23.98
15144;BMP180;7672;50.834;6.286;2022-10-16T16:10:17;99701.44;;;23.90
15144;BMP180;7672;50.834;6.286;2022-10-16T16:12:47;99704.34;;;23.84
15144;BMP180;7672;50.834;6.286;2022-10-16T16:15:23;99703.03;;;23.76
15144;BMP180;7672;50.834;6.286;2022-10-16T16:17:50;99693.88;;;23.69
15144;BMP180;7672;50.834;6.286;2022-10-16T16:20:17;99708.78;;;23.64
15144;BMP180;7672;50.834;6.286;2022-10-16T16:22:43;99709.06;;;23.58
15144;BMP180;7672;50.834;6.286;2022-10-16T16:25:10;99706.84;;;23.51
15144;BMP180;7672;50.834;6.286;2022-10-16T16:27:37;99710.50;;;23.47
15144;BMP180;7672;50.834;6.286;2022-10-16T16:30:11;99704.72;;;23.42
15144;BMP180;7672;50.834;6.286;2022-10-16T16:32:45;99707.72;;;23.33
15144;BMP180;7672;50.834;6.286;2022-10-16T16:35:12;99703.66;;;23.27
15144;BMP180;7672;50.834;6.286;2022-10-16T16:37:38;99703.00;;;23.24